Time;durP1;ratioP1;P1;durP2;ratioP2;P2;SDS_P1;SDS_P2;PMS_P1;PMS_P2;Temp;Humidity;BMP_temperature;BMP_pressure;BME280_temperature;BME280_humidity;BME280_pressure;Samples;Min_cycle;Max_cycle;Signal;HPM_P1;HPM_P2
2021/06/19 00:01:58;;;;;;;5.57;5.18;;;23.50;99.90;;;;;;5034058;28;20171;-65
2021/06/19 00:04:24;;;;;;;5.07;4.78;;;23.50;99.90;;;;;;5033565;28;20175;-65
2021/06/19 00:06:50;;;;;;;5.13;4.47;;;23.50;99.90;;;;;;5014962;28;20188;-65
2021/06/19 00:09:16;;;;;;;5.05;4.65;;;23.40;99.90;;;;;;5014409;28;20208;-65
2021/06/19 00:11:42;;;;;;;6.03;4.95;;;23.40;99.90;;;;;;5031272;28;20176;-66
2021/06/19 00:14:07;;;;;;;5.20;4.90;;;23.30;99.90;;;;;;5034274;28;20171;-66
2021/06/19 00:16:34;;;;;;;5.78;5.10;;;23.30;99.90;;;;;;5018364;28;20178;-67
2021/06/19 00:19:01;;;;;;;5.68;5.28;;;23.30;99.90;;;;;;5014174;28;20196;-65
2021/06/19 00:21:27;;;;;;;5.93;5.35;;;23.30;99.90;;;;;;5027964;28;20194;-67
2021/06/19 00:23:53;;;;;;;5.45;5.05;;;23.20;99.90;;;;;;5033961;28;20175;-66
2021/06/19 00:26:18;;;;;;;5.63;5.20;;;23.20;99.90;;;;;;5021388;28;20183;-67
2021/06/19 00:28:44;;;;;;;5.07;4.60;;;23.20;99.90;;;;;;5013790;28;20546;-65
2021/06/19 00:31:09;;;;;;;6.10;5.35;;;23.20;99.90;;;;;;5024493;28;20187;-67
2021/06/19 00:33:35;;;;;;;5.10;4.70;;;23.10;99.90;;;;;;5033857;28;20176;-67
2021/06/19 00:36:00;;;;;;;4.57;4.25;;;23.00;99.90;;;;;;5029583;28;20229;-67
2021/06/19 00:38:26;;;;;;;5.10;4.63;;;23.00;99.90;;;;;;5033775;28;20221;-66
2021/06/19 00:40:52;;;;;;;4.90;4.50;;;23.00;99.90;;;;;;5015704;28;20208;-67
2021/06/19 00:43:17;;;;;;;4.60;4.30;;;22.90;99.90;;;;;;5014184;28;20188;-66
2021/06/19 00:45:43;;;;;;;4.80;4.40;;;22.90;99.90;;;;;;5029068;28;20543;-66
2021/06/19 00:48:10;;;;;;;4.50;4.20;;;23.00;99.90;;;;;;5033707;28;20207;-67
2021/06/19 00:50:38;;;;;;;4.60;4.30;;;23.00;99.90;;;;;;5018808;28;20617;-67
2021/06/19 00:53:04;;;;;;;4.60;4.30;;;23.00;99.90;;;;;;5013708;28;20551;-67
2021/06/19 00:55:30;;;;;;;4.28;3.97;;;23.00;99.90;;;;;;5026014;28;20262;-66
2021/06/19 00:57:57;;;;;;;4.55;4.35;;;22.90;99.90;;;;;;5033588;28;20519;-66
2021/06/19 01:00:23;;;;;;;4.43;4.13;;;22.90;99.90;;;;;;5021675;28;20207;-66
2021/06/19 01:02:57;;;;;;;4.45;4.15;;;22.90;99.90;;;;;;5013181;28;20168;-66
2021/06/19 01:05:25;;;;;;;4.95;4.65;;;22.90;99.90;;;;;;5023616;28;20270;-66
2021/06/19 01:07:51;;;;;;;4.93;4.43;;;22.80;99.90;;;;;;5033070;28;20199;-65
2021/06/19 01:10:16;;;;;;;4.22;3.92;;;22.70;99.90;;;;;;5023569;28;20199;-65
2021/06/19 01:12:45;;;;;;;4.40;4.18;;;22.70;99.90;;;;;;5013142;28;20231;-66
2021/06/19 01:15:11;;;;;;;4.72;4.53;;;22.60;99.90;;;;;;5020819;28;20241;-65
2021/06/19 01:17:37;;;;;;;4.45;4.25;;;22.60;99.90;;;;;;5032963;28;20183;-65
2021/06/19 01:20:18;;;;;;;5.53;5.13;;;22.50;99.90;;;;;;5024734;28;21236;-65
2021/06/19 01:22:46;;;;;;;4.57;4.18;;;22.40;99.90;;;;;;5012956;28;20168;-65
2021/06/19 01:25:18;;;;;;;4.90;4.60;;;22.30;99.90;;;;;;5025001;28;20286;-66
2021/06/19 01:27:44;;;;;;;4.80;4.50;;;22.30;99.90;;;;;;5032679;28;20191;-65
2021/06/19 01:30:10;;;;;;;4.20;3.95;;;22.30;99.90;;;;;;5020926;28;20240;-65
2021/06/19 01:32:38;;;;;;;6.07;4.20;;;22.20;99.90;;;;;;5012733;28;20175;-65
2021/06/19 01:35:05;;;;;;;4.13;3.92;;;22.10;99.90;;;;;;5022703;28;20652;-65
2021/06/19 01:37:31;;;;;;;5.53;4.68;;;22.10;99.90;;;;;;5032568;28;20184;-66
2021/06/19 01:40:24;;;;;;;4.82;4.53;;;22.00;99.90;;;;;;5023611;28;20203;-65
2021/06/19 01:42:51;;;;;;;4.50;4.30;;;22.00;99.90;;;;;;5011230;28;20189;-66
2021/06/19 01:45:24;;;;;;;4.60;4.20;;;22.00;99.90;;;;;;5022643;28;20183;-65
2021/06/19 01:47:51;;;;;;;4.57;4.28;;;22.00;99.90;;;;;;5012553;28;20223;-65
2021/06/19 01:50:23;;;;;;;4.03;3.83;;;21.90;99.90;;;;;;5022033;28;20213;-65
2021/06/19 01:52:52;;;;;;;4.70;4.40;;;21.90;99.90;;;;;;5032153;28;20174;-66
2021/06/19 01:55:18;;;;;;;5.00;4.70;;;21.90;99.90;;;;;;5022428;28;20222;-65
2021/06/19 01:57:45;;;;;;;5.57;5.00;;;21.80;99.90;;;;;;5012519;28;20204;-65
2021/06/19 02:00:17;;;;;;;4.97;4.70;;;21.80;99.90;;;;;;5020003;28;20326;-65
2021/06/19 02:02:43;;;;;;;5.20;4.43;;;21.70;99.90;;;;;;5032152;28;20176;-66
2021/06/19 02:05:10;;;;;;;5.78;4.75;;;21.70;99.90;;;;;;5030456;28;20186;-67
2021/06/19 02:07:47;;;;;;;4.88;4.45;;;21.70;99.90;;;;;;5032011;28;20183;-65
2021/06/19 02:10:13;;;;;;;5.00;4.70;;;21.70;99.90;;;;;;5030205;28;20191;-66
2021/06/19 02:12:39;;;;;;;5.57;4.70;;;21.70;99.90;;;;;;5031916;28;20168;-66
2021/06/19 02:15:05;;;;;;;5.57;5.05;;;21.60;99.90;;;;;;5025996;28;20187;-66
2021/06/19 02:17:31;;;;;;;5.60;5.30;;;21.60;99.90;;;;;;5011666;28;20184;-66
2021/06/19 02:19:57;;;;;;;4.97;4.68;;;21.60;99.90;;;;;;5015733;28;20203;-66
2021/06/19 02:22:22;;;;;;;5.00;4.53;;;21.50;99.90;;;;;;5032036;28;20755;-67
2021/06/19 02:24:48;;;;;;;5.03;4.72;;;21.60;99.90;;;;;;5029192;28;20812;-67
2021/06/19 02:27:15;;;;;;;5.47;4.97;;;21.60;99.90;;;;;;5012079;28;20180;-66
2021/06/19 02:29:42;;;;;;;5.40;5.10;;;21.60;99.90;;;;;;5012425;28;20192;-65
2021/06/19 02:32:10;;;;;;;6.20;5.80;;;21.60;99.90;;;;;;5031501;28;20567;-66
2021/06/19 02:34:36;;;;;;;6.22;5.22;;;21.60;99.90;;;;;;5018674;28;20176;-66
2021/06/19 02:37:03;;;;;;;5.22;4.93;;;21.50;99.90;;;;;;5012061;28;20176;-66
2021/06/19 02:39:28;;;;;;;7.80;7.07;;;21.50;99.90;;;;;;5022775;28;20286;-67
2021/06/19 02:41:54;;;;;;;7.05;6.65;;;21.40;99.90;;;;;;5031370;28;20579;-67
2021/06/19 02:44:20;;;;;;;6.40;6.00;;;21.40;99.90;;;;;;5022382;28;20180;-66
2021/06/19 02:46:45;;;;;;;6.15;5.72;;;21.40;99.90;;;;;;5011733;28;20169;-65
2021/06/19 02:49:11;;;;;;;5.88;5.57;;;21.30;99.90;;;;;;5018972;28;20289;-65
2021/06/19 02:51:37;;;;;;;6.80;6.40;;;21.20;99.90;;;;;;5031352;28;20176;-65
2021/06/19 02:54:02;;;;;;;5.40;5.10;;;21.20;99.90;;;;;;5025492;28;20767;-66
2021/06/19 02:56:28;;;;;;;5.07;4.78;;;21.20;99.90;;;;;;5011899;28;20164;-66
2021/06/19 02:58:53;;;;;;;5.38;5.07;;;21.20;99.90;;;;;;5015340;28;20271;-65
2021/06/19 03:01:19;;;;;;;5.82;5.35;;;21.20;99.90;;;;;;5021363;28;20184;-65
2021/06/19 03:03:44;;;;;;;5.32;5.07;;;21.20;99.90;;;;;;5013767;28;20207;-65
2021/06/19 03:06:10;;;;;;;4.35;4.13;;;21.20;99.90;;;;;;5031487;28;20203;-66
2021/06/19 03:08:36;;;;;;;5.93;5.63;;;21.10;99.90;;;;;;5030545;28;20293;-67
2021/06/19 03:11:02;;;;;;;5.60;5.30;;;21.10;99.90;;;;;;5011251;28;20692;-65
2021/06/19 03:13:27;;;;;;;6.30;5.90;;;21.00;99.90;;;;;;5011712;28;20176;-65
2021/06/19 03:15:53;;;;;;;5.68;5.30;;;20.90;99.90;;;;;;5030049;28;20176;-66
2021/06/19 03:18:19;;;;;;;5.57;5.28;;;20.90;99.90;;;;;;5031480;28;20175;-66
2021/06/19 03:20:44;;;;;;;5.35;5.05;;;20.90;99.90;;;;;;5013685;28;20203;-66
2021/06/19 03:23:10;;;;;;;5.32;5.03;;;20.80;99.90;;;;;;5011624;28;20227;-67
2021/06/19 03:25:42;;;;;;;6.28;5.68;;;20.80;99.90;;;;;;5026431;28;20241;-67
2021/06/19 03:28:09;;;;;;;4.80;4.60;;;20.80;99.90;;;;;;5033356;28;20309;-67
2021/06/19 03:30:37;;;;;;;4.70;4.50;;;20.70;99.90;;;;;;5020374;28;20206;-67
2021/06/19 03:33:04;;;;;;;4.78;4.55;;;20.70;99.90;;;;;;5015150;28;20585;-66
2021/06/19 03:35:30;;;;;;;4.80;4.60;;;20.70;99.90;;;;;;5026551;28;20278;-65
2021/06/19 03:37:56;;;;;;;7.28;6.75;;;20.70;99.90;;;;;;5034895;28;20225;-65
2021/06/19 03:40:23;;;;;;;6.60;6.30;;;20.70;99.90;;;;;;5023296;28;20204;-67
2021/06/19 03:42:50;;;;;;;5.70;5.30;;;20.60;99.90;;;;;;5014816;28;20168;-66
2021/06/19 03:45:17;;;;;;;4.70;4.50;;;20.60;99.90;;;;;;5024328;28;20233;-66
2021/06/19 03:47:43;;;;;;;5.38;4.93;;;20.60;99.90;;;;;;5034697;28;20202;-65
2021/06/19 03:50:15;;;;;;;5.80;5.50;;;20.70;99.90;;;;;;5026049;28;20704;-67
2021/06/19 03:52:41;;;;;;;5.25;4.85;;;20.70;99.90;;;;;;5014860;28;20255;-65
2021/06/19 03:55:07;;;;;;;5.22;4.93;;;20.70;99.90;;;;;;5021487;28;20271;-65
2021/06/19 03:57:36;;;;;;;5.25;4.95;;;20.70;99.90;;;;;;5034603;28;20262;-67
2021/06/19 04:00:04;;;;;;;5.38;5.07;;;20.70;99.90;;;;;;5031756;28;20203;-66
2021/06/19 04:02:29;;;;;;;5.25;4.95;;;20.60;99.90;;;;;;5033619;28;20528;-68
2021/06/19 04:04:55;;;;;;;6.00;5.70;;;20.60;99.90;;;;;;5032052;28;20182;-67
2021/06/19 04:07:21;;;;;;;6.55;6.05;;;20.70;99.90;;;;;;5034375;28;20662;-67
2021/06/19 04:09:48;;;;;;;6.65;6.10;;;20.70;99.90;;;;;;5031588;28;20297;-67
2021/06/19 04:12:14;;;;;;;5.47;5.18;;;20.80;99.90;;;;;;5014587;28;20172;-67
2021/06/19 04:14:40;;;;;;;4.63;4.32;;;20.90;99.90;;;;;;5014771;28;20172;-66
2021/06/19 04:17:08;;;;;;;4.85;4.65;;;21.10;99.90;;;;;;5034126;28;20515;-67
2021/06/19 04:19:35;;;;;;;4.82;4.53;;;21.30;99.90;;;;;;5034104;28;20191;-67
2021/06/19 04:22:03;;;;;;;4.50;4.20;;;21.50;99.90;;;;;;5032150;28;20180;-66
2021/06/19 04:24:29;;;;;;;4.55;4.18;;;21.70;99.90;;;;;;5034072;28;20167;-66
2021/06/19 04:26:54;;;;;;;4.60;4.20;;;21.90;99.90;;;;;;5016010;28;20243;-67
2021/06/19 04:29:20;;;;;;;6.15;5.85;;;22.00;99.90;;;;;;5014070;28;20653;-67
2021/06/19 04:31:46;;;;;;;4.28;4.07;;;22.30;99.90;;;;;;5029290;28;20175;-68
2021/06/19 04:34:12;;;;;;;4.43;4.20;;;22.50;99.90;;;;;;5023089;28;20223;-67
2021/06/19 04:36:37;;;;;;;4.15;3.95;;;22.80;99.90;;;;;;5013994;28;20164;-67
2021/06/19 04:39:03;;;;;;;4.05;3.85;;;23.20;99.90;;;;;;5021700;28;20207;-65
2021/06/19 04:41:39;;;;;;;4.60;4.20;;;23.10;99.90;;;;;;5033418;28;20178;-67
2021/06/19 04:44:20;;;;;;;4.25;4.05;;;23.30;99.90;;;;;;5032079;28;20181;-66
2021/06/19 04:46:47;;;;;;;4.03;3.83;;;23.50;99.90;;;;;;5033527;28;20171;-68
2021/06/19 04:49:12;;;;;;;3.97;3.78;;;23.70;99.90;;;;;;5024967;28;20208;-68
2021/06/19 04:51:39;;;;;;;4.38;4.10;;;24.00;99.90;;;;;;5013315;28;20179;-67
2021/06/19 04:54:05;;;;;;;4.25;3.95;;;24.30;99.90;;;;;;5020634;28;20175;-67
2021/06/19 04:56:31;;;;;;;3.95;3.75;;;24.60;99.90;;;;;;5033602;28;20624;-66
2021/06/19 04:58:57;;;;;;;3.95;3.65;;;24.50;99.90;;;;;;5027351;28;20205;-68
2021/06/19 05:01:22;;;;;;;4.43;4.00;;;24.60;99.90;;;;;;5013252;28;20180;-67
2021/06/19 05:03:48;;;;;;;4.35;4.15;;;24.70;99.90;;;;;;5024769;28;20274;-66
2021/06/19 05:06:13;;;;;;;4.38;4.18;;;24.80;99.90;;;;;;5031998;28;20178;-67
2021/06/19 05:08:40;;;;;;;4.25;4.05;;;24.90;99.90;;;;;;5023197;28;20204;-65
2021/06/19 05:11:06;;;;;;;3.80;3.60;;;25.20;99.90;;;;;;5009889;28;20377;-66
2021/06/19 05:13:31;;;;;;;4.05;3.75;;;25.50;99.90;;;;;;5020459;28;20645;-67
2021/06/19 05:15:57;;;;;;;3.58;3.38;;;25.70;99.90;;;;;;5032979;28;20174;-66
2021/06/19 05:18:22;;;;;;;4.82;3.30;;;26.00;99.90;;;;;;5027126;28;20676;-67
2021/06/19 05:20:48;;;;;;;3.50;3.30;;;26.10;99.90;;;;;;5012536;28;20669;-66
2021/06/19 05:23:14;;;;;;;4.05;3.85;;;26.10;99.90;;;;;;5017050;28;20259;-66
2021/06/19 05:25:39;;;;;;;3.50;3.30;;;26.00;99.90;;;;;;5032608;28;20175;-65
2021/06/19 05:28:05;;;;;;;4.07;3.72;;;25.70;99.90;;;;;;5030472;28;20717;-65
2021/06/19 05:30:31;;;;;;;3.72;3.53;;;25.70;99.90;;;;;;5012621;28;20188;-65
2021/06/19 05:32:57;;;;;;;3.50;3.30;;;25.80;99.90;;;;;;5012860;28;20175;-65
2021/06/19 05:35:23;;;;;;;3.90;3.70;;;25.70;99.90;;;;;;5032742;28;20692;-65
2021/06/19 05:37:50;;;;;;;3.70;3.50;;;25.70;99.90;;;;;;5032638;28;20282;-65
2021/06/19 05:40:16;;;;;;;3.70;3.50;;;25.80;99.90;;;;;;5013322;28;20208;-65
2021/06/19 05:42:42;;;;;;;3.50;3.30;;;26.00;99.90;;;;;;5012796;28;20188;-65
2021/06/19 05:45:08;;;;;;;6.45;6.15;;;25.80;99.90;;;;;;5028952;28;20202;-65
2021/06/19 05:47:34;;;;;;;4.68;4.47;;;26.10;99.90;;;;;;5032403;28;20191;-65
2021/06/19 05:50:00;;;;;;;4.85;4.45;;;25.90;99.90;;;;;;5016555;28;20208;-65
2021/06/19 05:52:26;;;;;;;4.95;4.75;;;25.70;99.90;;;;;;5012025;28;20258;-65
2021/06/19 05:54:52;;;;;;;4.88;4.50;;;25.30;99.90;;;;;;5025347;28;20258;-65
2021/06/19 05:57:18;;;;;;;4.18;3.97;;;25.20;99.90;;;;;;5032306;28;20644;-65
2021/06/19 05:59:43;;;;;;;3.33;3.13;;;25.20;99.90;;;;;;5020234;28;20198;-66
2021/06/19 06:02:09;;;;;;;3.63;3.42;;;25.00;99.90;;;;;;5012375;28;20641;-65
2021/06/19 06:04:35;;;;;;;4.47;4.28;;;25.10;99.90;;;;;;5021715;28;20180;-65
2021/06/19 06:07:01;;;;;;;4.72;4.53;;;25.30;99.90;;;;;;5032016;28;20187;-66
2021/06/19 06:09:27;;;;;;;5.10;4.72;;;25.40;99.90;;;;;;5023856;28;20214;-70
2021/06/19 06:11:53;;;;;;;4.50;4.20;;;25.60;99.90;;;;;;5011214;28;20165;-69
2021/06/19 06:14:19;;;;;;;3.72;3.53;;;25.30;99.90;;;;;;5013405;28;20172;-65
2021/06/19 06:16:44;;;;;;;3.50;3.30;;;25.10;99.90;;;;;;5012181;28;20184;-66
2021/06/19 06:19:10;;;;;;;4.78;4.47;;;25.30;99.90;;;;;;5016133;28;20257;-66
2021/06/19 06:21:36;;;;;;;4.10;3.80;;;25.40;99.90;;;;;;5030348;28;20573;-67
2021/06/19 06:24:02;;;;;;;4.70;4.50;;;25.60;99.90;;;;;;5030139;28;20266;-66
2021/06/19 06:26:27;;;;;;;3.97;3.78;;;25.80;99.90;;;;;;5011997;28;20258;-65
2021/06/19 06:28:53;;;;;;;3.25;3.15;;;26.30;99.90;;;;;;5011908;28;20208;-65
2021/06/19 06:31:18;;;;;;;4.15;3.95;;;26.10;99.90;;;;;;5031450;28;20194;-67
2021/06/19 06:33:44;;;;;;;3.85;3.65;;;25.70;99.90;;;;;;5018594;28;20234;-66
2021/06/19 06:36:10;;;;;;;3.60;3.40;;;25.40;99.90;;;;;;5011989;28;20176;-66
2021/06/19 06:38:35;;;;;;;3.78;3.58;;;24.90;99.90;;;;;;5013065;28;20195;-66
2021/06/19 06:41:01;;;;;;;3.70;3.50;;;24.70;99.90;;;;;;5011327;28;20332;-67
2021/06/19 06:43:27;;;;;;;3.97;3.78;;;24.60;99.90;;;;;;5019710;28;20183;-67
2021/06/19 06:45:52;;;;;;;4.25;3.95;;;24.40;99.90;;;;;;5031615;28;20186;-67
2021/06/19 06:48:18;;;;;;;3.40;3.20;;;24.70;99.90;;;;;;5029830;28;20700;-66
2021/06/19 06:50:44;;;;;;;4.22;4.03;;;25.10;99.90;;;;;;5026194;28;20227;-67
2021/06/19 06:53:09;;;;;;;3.38;3.28;;;25.10;99.90;;;;;;5031453;28;20254;-66
2021/06/19 06:55:35;;;;;;;3.70;3.50;;;25.10;99.90;;;;;;5029983;28;20230;-67
2021/06/19 06:58:01;;;;;;;3.70;3.50;;;25.50;99.90;;;;;;5031483;28;20682;-65
2021/06/19 07:00:27;;;;;;;3.67;3.47;;;26.00;99.90;;;;;;5029670;28;20278;-66
2021/06/19 07:02:52;;;;;;;3.25;3.15;;;26.00;99.90;;;;;;5013406;28;20176;-66
2021/06/19 07:05:19;;;;;;;3.65;3.45;;;26.10;99.90;;;;;;5015690;28;20179;-65
2021/06/19 07:07:45;;;;;;;3.53;3.33;;;26.00;99.90;;;;;;5016538;28;20204;-66
2021/06/19 07:10:12;;;;;;;3.25;3.05;;;25.90;99.90;;;;;;5026369;28;20294;-66
2021/06/19 07:12:42;;;;;;;3.67;3.47;;;26.60;99.90;;;;;;5035268;28;20263;-65
2021/06/19 07:15:09;;;;;;;3.45;3.15;;;27.50;99.90;;;;;;5022795;28;20187;-66
2021/06/19 07:17:34;;;;;;;3.40;3.20;;;27.40;99.90;;;;;;5015495;28;20179;-65
2021/06/19 07:20:02;;;;;;;3.10;3.00;;;26.80;99.90;;;;;;5020720;28;20204;-65
2021/06/19 07:22:28;;;;;;;2.97;2.88;;;26.70;99.90;;;;;;5015321;28;20184;-66
2021/06/19 07:24:54;;;;;;;3.55;3.35;;;27.20;99.90;;;;;;5023165;28;20187;-66
2021/06/19 07:27:19;;;;;;;4.03;3.83;;;27.30;99.90;;;;;;5035002;28;20179;-66
2021/06/19 07:29:45;;;;;;;3.78;3.58;;;27.90;99.90;;;;;;5027947;28;20192;-66
2021/06/19 07:32:10;;;;;;;3.60;3.40;;;28.70;99.90;;;;;;5015201;28;20250;-66
2021/06/19 07:34:36;;;;;;;3.60;3.30;;;29.40;99.90;;;;;;5019593;28;20182;-66
2021/06/19 07:37:02;;;;;;;3.15;2.95;;;29.50;99.90;;;;;;5033975;28;20175;-66
2021/06/19 07:39:28;;;;;;;3.60;3.33;;;29.80;99.90;;;;;;5015063;28;20218;-66
2021/06/19 07:41:53;;;;;;;3.38;3.17;;;30.40;99.90;;;;;;5014532;28;20633;-66
2021/06/19 07:44:19;;;;;;;3.65;3.45;;;31.10;99.90;;;;;;5033222;28;20187;-66
2021/06/19 07:46:49;;;;;;;3.65;3.40;;;30.80;99.90;;;;;;5034616;28;20175;-66
2021/06/19 07:49:15;;;;;;;6.28;5.53;;;30.90;99.90;;;;;;5017005;28;20215;-66
2021/06/19 07:51:41;;;;;;;5.70;5.15;;;30.30;99.90;;;;;;5014442;28;20696;-66
2021/06/19 07:54:07;;;;;;;6.05;5.75;;;29.80;99.90;;;;;;5030084;28;20180;-67
2021/06/19 07:56:32;;;;;;;4.13;3.83;;;29.80;99.90;;;;;;5034993;28;20199;-67
2021/06/19 07:58:58;;;;;;;3.70;3.40;;;30.30;99.90;;;;;;5032640;28;20229;-66
2021/06/19 08:01:24;;;;;;;3.53;3.22;;;30.90;99.90;;;;;;5034224;28;20183;-67
2021/06/19 08:03:49;;;;;;;3.55;3.35;;;31.10;99.90;;;;;;5022170;28;20230;-64
2021/06/19 08:06:15;;;;;;;4.38;4.18;;;31.60;99.90;;;;;;5014628;28;20172;-64
2021/06/19 08:08:40;;;;;;;3.42;3.22;;;32.00;99.90;;;;;;5015403;28;20206;-65
2021/06/19 08:11:06;;;;;;;3.63;3.35;;;32.10;99.90;;;;;;5013664;28;20251;-66
2021/06/19 08:13:32;;;;;;;3.70;3.50;;;32.40;99.90;;;;;;5020940;28;20180;-66
2021/06/19 08:15:59;;;;;;;3.85;3.58;;;32.40;99.90;;;;;;5014059;28;20187;-66
2021/06/19 08:18:25;;;;;;;4.22;4.03;;;32.50;99.90;;;;;;5020997;28;20290;-65
2021/06/19 08:20:50;;;;;;;3.58;3.30;;;32.90;99.90;;;;;;5033581;28;20278;-62
2021/06/19 08:23:16;;;;;;;2.97;2.78;;;32.70;99.90;;;;;;5028694;28;20180;-65
2021/06/19 08:25:42;;;;;;;3.65;3.40;;;32.90;99.90;;;;;;5014216;28;20176;-67
2021/06/19 08:28:07;;;;;;;3.38;3.17;;;32.60;99.90;;;;;;5025878;28;20214;-67
2021/06/19 08:30:33;;;;;;;3.35;3.05;;;32.20;99.90;;;;;;5032462;28;20192;-67
2021/06/19 08:32:59;;;;;;;3.15;2.95;;;32.30;99.90;;;;;;5033576;28;20187;-67
2021/06/19 08:35:24;;;;;;;4.05;3.75;;;32.70;99.90;;;;;;5033749;28;20164;-68
2021/06/19 08:37:50;;;;;;;3.25;3.05;;;32.90;99.90;;;;;;5032874;28;20179;-67
2021/06/19 08:40:16;;;;;;;3.50;3.20;;;32.80;99.90;;;;;;5033406;28;20274;-66
2021/06/19 08:42:42;;;;;;;4.18;3.40;;;32.80;99.90;;;;;;5033660;28;20258;-67
2021/06/19 08:45:08;;;;;;;3.83;3.63;;;32.40;99.90;;;;;;5033718;28;20172;-66
2021/06/19 08:47:37;;;;;;;3.88;3.63;;;32.10;99.90;;;;;;5033608;28;20575;-67
2021/06/19 08:50:09;;;;;;;4.22;4.00;;;32.10;99.90;;;;;;5033088;28;20207;-67
2021/06/19 08:52:36;;;;;;;4.40;4.00;;;31.70;99.90;;;;;;5033547;28;20237;-68
2021/06/19 08:55:03;;;;;;;3.45;3.22;;;32.00;99.90;;;;;;5033429;28;20179;-67
2021/06/19 08:57:29;;;;;;;3.70;3.50;;;32.70;99.90;;;;;;5033416;28;20187;-67
2021/06/19 08:59:55;;;;;;;3.25;3.03;;;33.00;99.90;;;;;;5032978;28;20242;-67
2021/06/19 09:02:20;;;;;;;3.50;3.30;;;33.00;99.90;;;;;;5033381;28;20274;-67
2021/06/19 09:04:58;;;;;;;3.67;3.42;;;32.60;99.90;;;;;;5033094;28;20294;-66
2021/06/19 09:07:47;;;;;;;3.75;3.45;;;32.40;99.90;;;;;;5033288;28;20254;-67
2021/06/19 09:10:25;;;;;;;3.75;3.47;;;32.40;99.90;;;;;;5025335;28;20714;-67
2021/06/19 09:13:18;;;;;;;3.85;3.55;;;32.70;99.90;;;;;;5028611;28;20183;-67
2021/06/19 09:15:45;;;;;;;3.35;3.15;;;32.70;99.90;;;;;;5026183;28;20533;-67
2021/06/19 09:18:19;;;;;;;3.58;3.38;;;33.30;99.90;;;;;;5013238;28;20650;-67
2021/06/19 09:20:53;;;;;;;4.00;3.20;;;33.60;99.90;;;;;;5012587;28;20198;-66
2021/06/19 09:23:29;;;;;;;3.00;2.80;;;33.90;99.90;;;;;;5012294;28;20387;-66
2021/06/19 09:26:08;;;;;;;3.47;3.28;;;34.50;99.90;;;;;;5012941;28;20190;-67
2021/06/19 09:28:52;;;;;;;3.20;3.00;;;34.50;99.90;;;;;;5016909;28;20199;-64
2021/06/19 09:31:37;;;;;;;2.90;2.70;;;34.90;99.90;;;;;;5011835;28;20271;-66
2021/06/19 09:34:08;;;;;;;2.90;2.80;;;35.30;99.90;;;;;;5012444;28;20852;-66
2021/06/19 09:36:44;;;;;;;3.08;2.83;;;35.10;99.90;;;;;;5012971;28;20720;-66
2021/06/19 09:39:13;;;;;;;2.50;2.40;;;35.20;99.90;;;;;;5020511;28;20680;-67
2021/06/19 09:41:44;;;;;;;3.15;2.85;;;35.50;99.90;;;;;;5032152;28;20246;-66
2021/06/19 09:44:10;;;;;;;3.10;2.88;;;35.70;99.90;;;;;;5031002;28;20183;-66
2021/06/19 09:46:36;;;;;;;3.17;2.97;;;36.20;99.90;;;;;;5032410;28;20183;-63
2021/06/19 09:49:17;;;;;;;3.67;3.38;;;36.50;99.90;;;;;;5025952;28;20219;-63
2021/06/19 09:51:48;;;;;;;3.50;3.30;;;36.30;99.90;;;;;;5012210;28;20267;-63
2021/06/19 09:54:14;;;;;;;3.30;3.10;;;35.60;99.90;;;;;;5019271;28;20259;-63
2021/06/19 09:56:54;;;;;;;3.22;3.03;;;35.60;99.90;;;;;;5032252;28;20633;-63
2021/06/19 09:59:31;;;;;;;3.80;3.60;;;35.60;99.90;;;;;;5024675;28;20250;-63
2021/06/19 10:01:58;;;;;;;3.72;3.42;;;35.50;99.90;;;;;;5012079;28;20178;-63
2021/06/19 10:04:29;;;;;;;2.85;2.63;;;35.70;99.90;;;;;;5019548;28;20179;-63
2021/06/19 10:06:55;;;;;;;3.60;3.40;;;35.30;99.90;;;;;;5031960;28;20179;-63
2021/06/19 10:09:22;;;;;;;3.08;2.88;;;34.50;99.90;;;;;;5025336;28;20210;-63
2021/06/19 10:11:50;;;;;;;3.42;3.25;;;34.80;99.90;;;;;;5011827;28;20172;-63
2021/06/19 10:14:19;;;;;;;3.70;3.50;;;35.00;99.90;;;;;;5017050;28;20172;-63
2021/06/19 10:16:56;;;;;;;3.17;3.00;;;35.10;99.90;;;;;;5031966;28;20172;-63
2021/06/19 10:19:26;;;;;;;2.92;2.75;;;35.50;99.90;;;;;;5026190;28;20235;-63
2021/06/19 10:21:56;;;;;;;2.53;2.38;;;35.60;99.90;;;;;;5011856;28;20831;-63
2021/06/19 10:24:24;;;;;;;2.75;2.65;;;36.00;99.90;;;;;;5016584;28;20258;-63
2021/06/19 10:26:52;;;;;;;2.72;2.55;;;36.30;99.90;;;;;;5031762;28;20175;-63
2021/06/19 10:29:18;;;;;;;2.78;2.58;;;36.40;99.90;;;;;;5027640;28;20287;-63
2021/06/19 10:31:53;;;;;;;2.92;2.75;;;35.90;99.90;;;;;;5011649;28;20222;-63
2021/06/19 10:34:22;;;;;;;3.63;2.58;;;36.20;99.90;;;;;;5030761;28;20210;-63
2021/06/19 10:36:48;;;;;;;2.83;2.70;;;36.30;99.90;;;;;;5030906;28;20221;-63
2021/06/19 10:39:47;;;;;;;2.35;2.25;;;36.10;99.90;;;;;;5026644;28;20214;-63
2021/06/19 10:42:27;;;;;;;2.53;2.33;;;36.50;99.90;;;;;;5030834;28;20182;-63
2021/06/19 10:45:11;;;;;;;2.53;2.35;;;37.00;99.90;;;;;;5011934;28;20163;-63
2021/06/19 10:48:08;;;;;;;4.13;2.20;;;37.50;99.90;;;;;;5012082;28;20712;-63
2021/06/19 10:50:36;;;;;;;2.40;2.30;;;37.60;99.90;;;;;;5011721;28;20677;-63
2021/06/19 10:53:07;;;;;;;2.92;2.72;;;37.40;99.90;;;;;;5017812;28;20275;-63
2021/06/19 10:55:57;;;;;;;2.40;2.30;;;37.80;99.90;;;;;;5031547;28;20163;-63
2021/06/19 10:58:31;;;;;;;2.45;2.35;;;38.00;99.90;;;;;;5022890;28;20185;-63
2021/06/19 11:00:59;;;;;;;2.35;2.25;;;38.40;99.90;;;;;;5011312;28;20269;-63
2021/06/19 11:03:48;;;;;;;2.50;2.30;;;38.50;99.90;;;;;;5019720;28;20215;-63
2021/06/19 11:06:18;;;;;;;2.10;2.00;;;38.80;99.90;;;;;;5031429;28;20179;-63
2021/06/19 11:09:20;;;;;;;2.10;2.00;;;39.00;99.90;;;;;;5020549;28;20258;-63
2021/06/19 11:12:10;;;;;;;2.10;2.00;;;39.50;99.90;;;;;;5011355;28;20179;-63
2021/06/19 11:14:41;;;;;;;2.20;2.10;;;39.10;99.90;;;;;;5028219;28;20588;-63
2021/06/19 11:17:33;;;;;;;2.38;2.20;;;38.50;99.90;;;;;;5029893;28;20167;-63
2021/06/19 11:20:22;;;;;;;2.50;2.30;;;37.50;99.90;;;;;;5030678;28;20246;-63
2021/06/19 11:22:54;;;;;;;2.55;2.35;;;37.70;99.90;;;;;;5024462;28;20232;-63
2021/06/19 11:25:29;;;;;;;3.95;2.30;;;37.90;99.90;;;;;;5011583;28;20259;-63
2021/06/19 11:28:00;;;;;;;2.97;2.30;;;38.30;99.90;;;;;;5011925;28;20717;-64
2021/06/19 11:30:36;;;;;;;2.38;2.28;;;38.50;99.90;;;;;;5010362;28;20203;-63
2021/06/19 11:33:20;;;;;;;2.63;2.53;;;38.20;99.90;;;;;;5023044;28;20188;-64
2021/06/19 11:35:49;;;;;;;3.00;2.80;;;37.40;99.90;;;;;;5031191;28;20163;-63
2021/06/19 11:38:16;;;;;;;3.17;2.97;;;37.00;99.90;;;;;;5029762;28;20199;-63
2021/06/19 11:40:43;;;;;;;3.10;2.83;;;36.40;99.90;;;;;;5029683;28;20203;-64
2021/06/19 11:43:10;;;;;;;3.17;2.97;;;35.30;99.90;;;;;;5014653;28;20275;-64
2021/06/19 11:45:37;;;;;;;2.60;2.50;;;34.50;99.90;;;;;;5020933;28;20183;-63
2021/06/19 11:48:04;;;;;;;2.85;2.75;;;34.60;99.90;;;;;;5015650;28;20728;-64
2021/06/19 11:50:36;;;;;;;3.00;2.80;;;35.10;99.90;;;;;;5014565;28;20250;-63
2021/06/19 11:53:34;;;;;;;2.70;2.50;;;36.10;99.90;;;;;;5014877;28;20233;-63
2021/06/19 11:56:13;;;;;;;2.90;2.70;;;36.50;99.90;;;;;;5014781;28;20172;-63
2021/06/19 11:59:00;;;;;;;2.40;2.30;;;36.50;99.90;;;;;;5014136;28;20222;-63
2021/06/19 12:01:37;;;;;;;2.92;2.75;;;36.40;99.90;;;;;;5014601;28;20592;-64
2021/06/19 12:04:04;;;;;;;2.72;2.63;;;36.40;99.90;;;;;;5014684;28;20676;-63
2021/06/19 12:06:30;;;;;;;3.08;2.97;;;36.90;99.90;;;;;;5014808;28;20184;-64
2021/06/19 12:08:56;;;;;;;3.10;2.90;;;36.70;99.90;;;;;;5014529;28;20250;-64
2021/06/19 12:11:30;;;;;;;2.83;2.47;;;36.90;99.90;;;;;;5014183;28;20176;-63
2021/06/19 12:13:57;;;;;;;2.85;2.65;;;37.40;99.90;;;;;;5014556;28;20668;-64
2021/06/19 12:16:33;;;;;;;3.28;3.08;;;37.00;99.90;;;;;;5014684;28;20176;-64
2021/06/19 12:19:03;;;;;;;3.65;3.13;;;36.40;99.90;;;;;;5014564;28;20203;-64
2021/06/19 12:21:31;;;;;;;3.13;2.83;;;36.40;99.90;;;;;;5014154;28;20177;-64
2021/06/19 12:23:56;;;;;;;4.53;2.72;;;36.60;99.90;;;;;;5014305;28;20741;-64
2021/06/19 12:26:22;;;;;;;3.20;3.00;;;36.50;99.90;;;;;;5014435;28;20181;-63
2021/06/19 12:28:49;;;;;;;3.25;2.60;;;36.20;99.90;;;;;;5014075;28;20636;-63
2021/06/19 12:31:17;;;;;;;2.80;2.65;;;35.90;99.90;;;;;;5013780;28;20203;-63
2021/06/19 12:33:44;;;;;;;3.28;3.08;;;35.90;99.90;;;;;;5014206;28;20177;-64
2021/06/19 12:36:11;;;;;;;2.72;2.60;;;36.10;99.90;;;;;;5014074;28;20634;-64
2021/06/19 12:38:38;;;;;;;3.95;3.75;;;36.40;99.90;;;;;;5014216;28;20214;-63
2021/06/19 12:41:07;;;;;;;3.25;3.05;;;36.90;99.90;;;;;;5013683;28;20207;-64
2021/06/19 12:43:44;;;;;;;2.88;2.78;;;37.00;99.90;;;;;;5014090;28;20177;-63
2021/06/19 12:46:18;;;;;;;2.72;2.53;;;37.30;99.90;;;;;;5013800;28;20168;-63
2021/06/19 12:48:45;;;;;;;2.88;2.67;;;37.70;99.90;;;;;;5013456;28;20199;-63
2021/06/19 12:51:29;;;;;;;2.63;2.45;;;38.10;99.90;;;;;;5013414;28;20199;-65
2021/06/19 12:54:24;;;;;;;2.60;2.40;;;38.30;99.90;;;;;;5013610;28;20183;-63
2021/06/19 12:56:57;;;;;;;3.17;2.97;;;37.60;99.90;;;;;;5012369;28;20604;-63